sensor_id;sensor_type;location;lat;lon;timestamp;temperature;humidity
10828;DHT22;5467;59.334;13.512;2022-10-28T00:00:06;12.50;99.90
10828;DHT22;5467;59.334;13.512;2022-10-28T00:02:33;12.60;99.90
10828;DHT22;5467;59.334;13.512;2022-10-28T00:05:00;12.60;99.90
10828;DHT22;5467;59.334;13.512;2022-10-28T00:07:27;12.60;99.90
10828;DHT22;5467;59.334;13.512;2022-10-28T00:09:54;12.60;99.90
10828;DHT22;5467;59.334;13.512;2022-10-28T00:12:23;12.60;99.90
10828;DHT22;5467;59.334;13.512;2022-10-28T00:14:50;12.60;99.90
10828;DHT22;5467;59.334;13.512;2022-10-28T00:17:17;12.60;99.90
10828;DHT22;5467;59.334;13.512;2022-10-28T00:19:44;12.60;99.90
10828;DHT22;5467;59.334;13.512;2022-10-28T00:22:11;12.60;99.90
10828;DHT22;5467;59.334;13.512;2022-10-28T00:24:38;12.60;99.90
10828;DHT22;5467;59.334;13.512;2022-10-28T00:27:04;12.60;99.90
10828;DHT22;5467;59.334;13.512;2022-10-28T00:29:33;12.60;99.90
10828;DHT22;5467;59.334;13.512;2022-10-28T00:32:00;12.60;99.90
10828;DHT22;5467;59.334;13.512;2022-10-28T00:34:27;12.60;99.90
10828;DHT22;5467;59.334;13.512;2022-10-28T00:36:54;12.60;99.90
10828;DHT22;5467;59.334;13.512;2022-10-28T00:39:22;12.60;99.90
10828;DHT22;5467;59.334;13.512;2022-10-28T00:41:51;12.50;99.90
10828;DHT22;5467;59.334;13.512;2022-10-28T00:44:51;12.50;99.90
10828;DHT22;5467;59.334;13.512;2022-10-28T00:47:36;12.60;99.90
10828;DHT22;5467;59.334;13.512;2022-10-28T00:50:14;12.60;99.90
10828;DHT22;5467;59.334;13.512;2022-10-28T00:52:44;12.60;99.90
10828;DHT22;5467;59.334;13.512;2022-10-28T00:55:14;12.60;99.90
10828;DHT22;5467;59.334;13.512;2022-10-28T00:57:43;12.60;99.90
10828;DHT22;5467;59.334;13.512;2022-10-28T01:00:13;12.60;99.90
10828;DHT22;5467;59.334;13.512;2022-10-28T01:02:44;12.60;99.90
10828;DHT22;5467;59.334;13.512;2022-10-28T01:05:14;12.70;99.90
10828;DHT22;5467;59.334;13.512;2022-10-28T01:07:43;12.60;99.90
10828;DHT22;5467;59.334;13.512;2022-10-28T01:10:10;12.60;99.90
10828;DHT22;5467;59.334;13.512;2022-10-28T01:12:48;12.70;99.90
10828;DHT22;5467;59.334;13.512;2022-10-28T01:15:32;12.70;99.90
10828;DHT22;5467;59.334;13.512;2022-10-28T01:18:07;12.70;99.90
10828;DHT22;5467;59.334;13.512;2022-10-28T01:20:59;12.70;99.90
10828;DHT22;5467;59.334;13.512;2022-10-28T01:23:34;12.60;99.90
10828;DHT22;5467;59.334;13.512;2022-10-28T01:29:18;12.80;99.90
10828;DHT22;5467;59.334;13.512;2022-10-28T01:31:53;12.90;99.90
10828;DHT22;5467;59.334;13.512;2022-10-28T01:34:28;12.90;99.90
10828;DHT22;5467;59.334;13.512;2022-10-28T01:37:04;12.90;99.90
10828;DHT22;5467;59.334;13.512;2022-10-28T01:39:44;12.90;99.90
10828;DHT22;5467;59.334;13.512;2022-10-28T01:42:19;12.90;99.90
10828;DHT22;5467;59.334;13.512;2022-10-28T01:44:53;12.90;99.90
10828;DHT22;5467;59.334;13.512;2022-10-28T01:47:28;12.90;99.90
10828;DHT22;5467;59.334;13.512;2022-10-28T01:50:01;12.90;99.90
10828;DHT22;5467;59.334;13.512;2022-10-28T01:52:30;12.90;99.90
10828;DHT22;5467;59.334;13.512;2022-10-28T01:55:02;12.90;99.90
10828;DHT22;5467;59.334;13.512;2022-10-28T01:57:31;12.90;99.90
10828;DHT22;5467;59.334;13.512;2022-10-28T02:00:00;12.80;99.90
10828;DHT22;5467;59.334;13.512;2022-10-28T02:02:31;12.80;99.90
10828;DHT22;5467;59.334;13.512;2022-10-28T02:05:04;12.80;99.90
10828;DHT22;5467;59.334;13.512;2022-10-28T02:07:31;12.80;99.90
10828;DHT22;5467;59.334;13.512;2022-10-28T02:10:05;12.80;99.90
10828;DHT22;5467;59.334;13.512;2022-10-28T02:12:39;12.80;99.90
10828;DHT22;5467;59.334;13.512;2022-10-28T02:15:17;12.80;99.90
10828;DHT22;5467;59.334;13.512;2022-10-28T02:18:22;12.80;99.90
10828;DHT22;5467;59.334;13.512;2022-10-28T02:20:55;12.80;99.90
10828;DHT22;5467;59.334;13.512;2022-10-28T02:23:31;12.70;99.90
10828;DHT22;5467;59.334;13.512;2022-10-28T02:26:06;12.70;99.90
10828;DHT22;5467;59.334;13.512;2022-10-28T02:28:40;12.60;99.90
10828;DHT22;5467;59.334;13.512;2022-10-28T02:31:19;12.60;99.90
10828;DHT22;5467;59.334;13.512;2022-10-28T02:33:51;12.50;99.90
10828;DHT22;5467;59.334;13.512;2022-10-28T02:36:21;12.60;99.90
10828;DHT22;5467;59.334;13.512;2022-10-28T02:38:52;12.60;99.90
10828;DHT22;5467;59.334;13.512;2022-10-28T02:41:24;12.60;99.90
10828;DHT22;5467;59.334;13.512;2022-10-28T02:43:54;12.60;99.90
10828;DHT22;5467;59.334;13.512;2022-10-28T02:46:25;12.60;99.90
10828;DHT22;5467;59.334;13.512;2022-10-28T02:48:57;12.60;99.90
10828;DHT22;5467;59.334;13.512;2022-10-28T02:51:30;12.60;99.90
10828;DHT22;5467;59.334;13.512;2022-10-28T02:54:03;12.60;99.90
10828;DHT22;5467;59.334;13.512;2022-10-28T02:56:35;12.60;99.90
10828;DHT22;5467;59.334;13.512;2022-10-28T02:59:08;12.60;99.90
10828;DHT22;5467;59.334;13.512;2022-10-28T03:01:35;12.70;99.90
10828;DHT22;5467;59.334;13.512;2022-10-28T03:04:04;12.70;99.90
10828;DHT22;5467;59.334;13.512;2022-10-28T03:06:31;12.70;99.90
10828;DHT22;5467;59.334;13.512;2022-10-28T03:08:58;12.60;99.90
10828;DHT22;5467;59.334;13.512;2022-10-28T03:11:25;12.60;99.90
10828;DHT22;5467;59.334;13.512;2022-10-28T03:13:52;12.60;99.90
10828;DHT22;5467;59.334;13.512;2022-10-28T03:16:19;12.70;99.90
10828;DHT22;5467;59.334;13.512;2022-10-28T03:18:46;12.60;99.90
10828;DHT22;5467;59.334;13.512;2022-10-28T03:21:14;12.60;99.90
10828;DHT22;5467;59.334;13.512;2022-10-28T03:23:41;12.70;99.90
10828;DHT22;5467;59.334;13.512;2022-10-28T03:26:08;12.70;99.90
10828;DHT22;5467;59.334;13.512;2022-10-28T03:28:35;12.60;99.90
10828;DHT22;5467;59.334;13.512;2022-10-28T03:31:02;12.70;99.90
10828;DHT22;5467;59.334;13.512;2022-10-28T03:33:29;12.80;99.90
10828;DHT22;5467;59.334;13.512;2022-10-28T03:35:56;12.80;99.90
10828;DHT22;5467;59.334;13.512;2022-10-28T03:38:25;12.80;99.90
10828;DHT22;5467;59.334;13.512;2022-10-28T03:40:51;12.90;99.90
10828;DHT22;5467;59.334;13.512;2022-10-28T03:43:19;13.00;99.90
10828;DHT22;5467;59.334;13.512;2022-10-28T03:45:47;12.90;99.90
10828;DHT22;5467;59.334;13.512;2022-10-28T03:48:14;12.90;99.90
10828;DHT22;5467;59.334;13.512;2022-10-28T03:50:41;12.90;99.90
10828;DHT22;5467;59.334;13.512;2022-10-28T03:53:08;12.80;99.90
10828;DHT22;5467;59.334;13.512;2022-10-28T03:55:36;12.80;99.90
10828;DHT22;5467;59.334;13.512;2022-10-28T03:58:03;12.90;99.90
10828;DHT22;5467;59.334;13.512;2022-10-28T04:00:30;12.90;99.90
10828;DHT22;5467;59.334;13.512;2022-10-28T04:02:57;12.90;99.90
10828;DHT22;5467;59.334;13.512;2022-10-28T04:05:24;12.90;99.90
10828;DHT22;5467;59.334;13.512;2022-10-28T04:07:50;13.00;99.90
10828;DHT22;5467;59.334;13.512;2022-10-28T04:10:18;12.90;99.90
10828;DHT22;5467;59.334;13.512;2022-10-28T04:12:47;12.90;99.90
10828;DHT22;5467;59.334;13.512;2022-10-28T04:15:14;12.70;99.90
10828;DHT22;5467;59.334;13.512;2022-10-28T04:17:41;12.70;99.90
10828;DHT22;5467;59.334;13.512;2022-10-28T04:20:08;12.80;99.90
10828;DHT22;5467;59.334;13.512;2022-10-28T04:22:35;12.80;99.90
10828;DHT22;5467;59.334;13.512;2022-10-28T04:25:02;12.80;99.90
10828;DHT22;5467;59.334;13.512;2022-10-28T04:27:30;12.90;99.90
10828;DHT22;5467;59.334;13.512;2022-10-28T04:29:58;12.80;99.90
10828;DHT22;5467;59.334;13.512;2022-10-28T04:32:25;12.80;99.90
10828;DHT22;5467;59.334;13.512;2022-10-28T04:34:52;12.90;99.90
10828;DHT22;5467;59.334;13.512;2022-10-28T04:37:19;12.80;99.90
10828;DHT22;5467;59.334;13.512;2022-10-28T04:39:46;12.80;99.90
10828;DHT22;5467;59.334;13.512;2022-10-28T04:42:13;12.80;99.90
10828;DHT22;5467;59.334;13.512;2022-10-28T04:44:40;12.70;99.90
10828;DHT22;5467;59.334;13.512;2022-10-28T04:47:09;12.80;99.90
10828;DHT22;5467;59.334;13.512;2022-10-28T04:49:36;12.80;99.90
10828;DHT22;5467;59.334;13.512;2022-10-28T04:52:03;12.90;99.90
10828;DHT22;5467;59.334;13.512;2022-10-28T04:54:30;12.90;99.90
10828;DHT22;5467;59.334;13.512;2022-10-28T04:56:56;12.90;99.90
10828;DHT22;5467;59.334;13.512;2022-10-28T04:59:23;12.90;99.90
10828;DHT22;5467;59.334;13.512;2022-10-28T05:01:50;13.00;99.90
10828;DHT22;5467;59.334;13.512;2022-10-28T05:04:22;13.00;99.90
10828;DHT22;5467;59.334;13.512;2022-10-28T05:06:48;12.90;99.90
10828;DHT22;5467;59.334;13.512;2022-10-28T05:09:15;12.90;99.90
10828;DHT22;5467;59.334;13.512;2022-10-28T05:11:42;13.00;99.90
10828;DHT22;5467;59.334;13.512;2022-10-28T05:14:10;12.90;99.90
10828;DHT22;5467;59.334;13.512;2022-10-28T05:16:36;13.00;99.90
10828;DHT22;5467;59.334;13.512;2022-10-28T05:19:03;13.00;99.90
10828;DHT22;5467;59.334;13.512;2022-10-28T05:21:32;13.10;99.90
10828;DHT22;5467;59.334;13.512;2022-10-28T05:23:59;13.10;99.90
10828;DHT22;5467;59.334;13.512;2022-10-28T05:26:26;13.10;99.90
10828;DHT22;5467;59.334;13.512;2022-10-28T05:28:53;13.10;99.90
10828;DHT22;5467;59.334;13.512;2022-10-28T05:31:20;13.10;99.90
10828;DHT22;5467;59.334;13.512;2022-10-28T05:33:47;13.10;99.90
10828;DHT22;5467;59.334;13.512;2022-10-28T05:36:14;13.00;99.90
10828;DHT22;5467;59.334;13.512;2022-10-28T05:38:42;13.00;99.90
10828;DHT22;5467;59.334;13.512;2022-10-28T05:41:10;13.00;99.90
10828;DHT22;5467;59.334;13.512;2022-10-28T05:43:37;13.00;99.90
10828;DHT22;5467;59.334;13.512;2022-10-28T05:46:03;12.90;99.90
10828;DHT22;5467;59.334;13.512;2022-10-28T05:48:30;13.00;99.90
10828;DHT22;5467;59.334;13.512;2022-10-28T05:50:57;12.90;99.90
10828;DHT22;5467;59.334;13.512;2022-10-28T05:53:24;12.90;99.90
10828;DHT22;5467;59.334;13.512;2022-10-28T05:55:52;12.90;99.90
10828;DHT22;5467;59.334;13.512;2022-10-28T05:58:19;12.90;99.90
10828;DHT22;5467;59.334;13.512;2022-10-28T06:00:46;12.90;99.90
10828;DHT22;5467;59.334;13.512;2022-10-28T06:03:13;12.90;99.90
10828;DHT22;5467;59.334;13.512;2022-10-28T06:05:42;12.90;99.90
10828;DHT22;5467;59.334;13.512;2022-10-28T06:08:10;12.90;99.90
10828;DHT22;5467;59.334;13.512;2022-10-28T06:10:37;12.90;99.90
10828;DHT22;5467;59.334;13.512;2022-10-28T06:13:06;12.90;99.90
10828;DHT22;5467;59.334;13.512;2022-10-28T06:15:33;12.90;99.90
10828;DHT22;5467;59.334;13.512;2022-10-28T06:18:00;12.90;99.90
10828;DHT22;5467;59.334;13.512;2022-10-28T06:20:27;12.90;99.90
10828;DHT22;5467;59.334;13.512;2022-10-28T06:22:55;12.90;99.90
10828;DHT22;5467;59.334;13.512;2022-10-28T06:25:23;12.90;99.90
10828;DHT22;5467;59.334;13.512;2022-10-28T06:27:53;13.00;99.90
10828;DHT22;5467;59.334;13.512;2022-10-28T06:30:22;12.90;99.90
10828;DHT22;5467;59.334;13.512;2022-10-28T06:32:49;12.90;99.90
10828;DHT22;5467;59.334;13.512;2022-10-28T06:35:16;12.80;99.90
10828;DHT22;5467;59.334;13.512;2022-10-28T06:37:43;12.90;99.90
10828;DHT22;5467;59.334;13.512;2022-10-28T06:40:10;12.90;99.90
10828;DHT22;5467;59.334;13.512;2022-10-28T06:42:37;12.90;99.90
10828;DHT22;5467;59.334;13.512;2022-10-28T06:45:05;12.90;99.90
10828;DHT22;5467;59.334;13.512;2022-10-28T06:47:34;12.90;99.90
10828;DHT22;5467;59.334;13.512;2022-10-28T06:50:01;12.90;99.90
10828;DHT22;5467;59.334;13.512;2022-10-28T06:52:28;12.80;99.90
10828;DHT22;5467;59.334;13.512;2022-10-28T06:54:55;12.70;99.90
10828;DHT22;5467;59.334;13.512;2022-10-28T06:57:22;12.80;99.90
10828;DHT22;5467;59.334;13.512;2022-10-28T06:59:48;12.70;99.90
10828;DHT22;5467;59.334;13.512;2022-10-28T07:02:15;12.70;99.90
10828;DHT22;5467;59.334;13.512;2022-10-28T07:04:44;12.70;99.90
10828;DHT22;5467;59.334;13.512;2022-10-28T07:07:11;12.90;99.90
10828;DHT22;5467;59.334;13.512;2022-10-28T07:09:38;12.80;99.90
10828;DHT22;5467;59.334;13.512;2022-10-28T07:12:05;12.80;99.90
10828;DHT22;5467;59.334;13.512;2022-10-28T07:14:32;12.90;99.90
10828;DHT22;5467;59.334;13.512;2022-10-28T07:17:00;13.00;99.90
10828;DHT22;5467;59.334;13.512;2022-10-28T07:19:27;12.90;99.90
10828;DHT22;5467;59.334;13.512;2022-10-28T07:21:55;12.90;99.90
10828;DHT22;5467;59.334;13.512;2022-10-28T07:24:22;12.90;99.90
10828;DHT22;5467;59.334;13.512;2022-10-28T07:26:49;13.00;99.90
10828;DHT22;5467;59.334;13.512;2022-10-28T07:29:16;13.00;99.90
10828;DHT22;5467;59.334;13.512;2022-10-28T07:31:43;13.00;99.90
10828;DHT22;5467;59.334;13.512;2022-10-28T07:34:10;13.00;99.90
10828;DHT22;5467;59.334;13.512;2022-10-28T07:36:37;13.10;99.90
10828;DHT22;5467;59.334;13.512;2022-10-28T07:39:06;13.10;99.90
10828;DHT22;5467;59.334;13.512;2022-10-28T07:41:33;13.10;99.90
10828;DHT22;5467;59.334;13.512;2022-10-28T07:43:59;13.20;99.90
10828;DHT22;5467;59.334;13.512;2022-10-28T07:46:26;13.30;99.90
10828;DHT22;5467;59.334;13.512;2022-10-28T07:48:53;13.30;99.90
10828;DHT22;5467;59.334;13.512;2022-10-28T07:51:20;13.30;99.90
10828;DHT22;5467;59.334;13.512;2022-10-28T07:53:47;13.30;99.90
10828;DHT22;5467;59.334;13.512;2022-10-28T07:56:16;13.30;99.90
10828;DHT22;5467;59.334;13.512;2022-10-28T07:58:43;13.30;99.90
10828;DHT22;5467;59.334;13.512;2022-10-28T08:01:12;13.30;99.90
10828;DHT22;5467;59.334;13.512;2022-10-28T08:03:39;13.30;99.90
10828;DHT22;5467;59.334;13.512;2022-10-28T08:06:09;13.30;99.90
10828;DHT22;5467;59.334;13.512;2022-10-28T08:08:36;13.30;99.90
10828;DHT22;5467;59.334;13.512;2022-10-28T08:11:10;13.40;99.90
10828;DHT22;5467;59.334;13.512;2022-10-28T08:13:39;13.40;99.90
10828;DHT22;5467;59.334;13.512;2022-10-28T08:16:07;13.50;99.90
10828;DHT22;5467;59.334;13.512;2022-10-28T08:18:34;13.50;99.90
10828;DHT22;5467;59.334;13.512;2022-10-28T08:21:03;13.50;99.90
10828;DHT22;5467;59.334;13.512;2022-10-28T08:23:30;13.40;99.90
10828;DHT22;5467;59.334;13.512;2022-10-28T08:25:58;13.40;99.90
10828;DHT22;5467;59.334;13.512;2022-10-28T08:28:25;13.40;99.90
10828;DHT22;5467;59.334;13.512;2022-10-28T08:30:53;13.50;99.90
10828;DHT22;5467;59.334;13.512;2022-10-28T08:33:25;13.50;99.90
10828;DHT22;5467;59.334;13.512;2022-10-28T08:35:52;13.40;99.90
10828;DHT22;5467;59.334;13.512;2022-10-28T08:38:19;13.40;99.90
10828;DHT22;5467;59.334;13.512;2022-10-28T08:40:54;13.40;99.90
10828;DHT22;5467;59.334;13.512;2022-10-28T08:43:29;13.50;99.90
10828;DHT22;5467;59.334;13.512;2022-10-28T08:46:05;13.60;99.90
10828;DHT22;5467;59.334;13.512;2022-10-28T08:48:36;13.50;99.90
10828;DHT22;5467;59.334;13.512;2022-10-28T08:51:09;13.50;99.90
10828;DHT22;5467;59.334;13.512;2022-10-28T08:53:43;13.50;99.90
10828;DHT22;5467;59.334;13.512;2022-10-28T08:56:15;13.50;99.90
10828;DHT22;5467;59.334;13.512;2022-10-28T08:58:46;13.50;99.90
10828;DHT22;5467;59.334;13.512;2022-10-28T09:01:20;13.50;99.90
10828;DHT22;5467;59.334;13.512;2022-10-28T09:03:51;13.60;99.90
10828;DHT22;5467;59.334;13.512;2022-10-28T09:06:18;13.60;99.90
10828;DHT22;5467;59.334;13.512;2022-10-28T09:08:47;13.70;99.90
10828;DHT22;5467;59.334;13.512;2022-10-28T09:14:35;13.60;99.90
10828;DHT22;5467;59.334;13.512;2022-10-28T09:17:13;13.80;99.90
10828;DHT22;5467;59.334;13.512;2022-10-28T09:19:46;13.80;99.90
10828;DHT22;5467;59.334;13.512;2022-10-28T09:22:23;13.80;99.90
10828;DHT22;5467;59.334;13.512;2022-10-28T09:24:53;13.90;99.90
10828;DHT22;5467;59.334;13.512;2022-10-28T09:27:39;13.90;99.90
10828;DHT22;5467;59.334;13.512;2022-10-28T09:30:25;13.90;99.90
10828;DHT22;5467;59.334;13.512;2022-10-28T09:33:04;13.90;99.90
10828;DHT22;5467;59.334;13.512;2022-10-28T09:35:37;14.00;99.90
10828;DHT22;5467;59.334;13.512;2022-10-28T09:38:15;14.00;99.90
10828;DHT22;5467;59.334;13.512;2022-10-28T09:40:48;13.90;99.90
10828;DHT22;5467;59.334;13.512;2022-10-28T09:43:23;13.80;99.90
10828;DHT22;5467;59.334;13.512;2022-10-28T09:45:56;13.90;99.90
10828;DHT22;5467;59.334;13.512;2022-10-28T09:48:27;13.90;99.90
10828;DHT22;5467;59.334;13.512;2022-10-28T09:50:56;13.90;99.90
10828;DHT22;5467;59.334;13.512;2022-10-28T09:53:31;13.90;99.90
10828;DHT22;5467;59.334;13.512;2022-10-28T09:56:01;13.80;99.90
10828;DHT22;5467;59.334;13.512;2022-10-28T09:58:28;13.90;99.90
10828;DHT22;5467;59.334;13.512;2022-10-28T10:00:56;13.90;99.90
10828;DHT22;5467;59.334;13.512;2022-10-28T10:03:23;13.90;99.90
10828;DHT22;5467;59.334;13.512;2022-10-28T10:05:54;13.90;99.90
10828;DHT22;5467;59.334;13.512;2022-10-28T10:08:21;13.90;99.90
10828;DHT22;5467;59.334;13.512;2022-10-28T10:10:51;13.90;99.90
10828;DHT22;5467;59.334;13.512;2022-10-28T10:13:21;13.90;99.90
10828;DHT22;5467;59.334;13.512;2022-10-28T10:15:52;13.90;99.90
10828;DHT22;5467;59.334;13.512;2022-10-28T10:18:22;13.80;99.90
10828;DHT22;5467;59.334;13.512;2022-10-28T10:20:53;13.80;99.90
10828;DHT22;5467;59.334;13.512;2022-10-28T10:23:26;13.90;99.90
10828;DHT22;5467;59.334;13.512;2022-10-28T10:25:54;13.90;99.90
10828;DHT22;5467;59.334;13.512;2022-10-28T10:28:24;14.00;99.90
10828;DHT22;5467;59.334;13.512;2022-10-28T10:30:53;13.80;99.90
10828;DHT22;5467;59.334;13.512;2022-10-28T10:33:22;13.80;99.90
10828;DHT22;5467;59.334;13.512;2022-10-28T10:35:56;13.70;99.90
10828;DHT22;5467;59.334;13.512;2022-10-28T10:38:24;13.70;99.90
10828;DHT22;5467;59.334;13.512;2022-10-28T10:40:52;13.80;99.90
10828;DHT22;5467;59.334;13.512;2022-10-28T10:43:21;13.80;99.90
10828;DHT22;5467;59.334;13.512;2022-10-28T10:45:59;13.90;99.90
10828;DHT22;5467;59.334;13.512;2022-10-28T10:48:27;14.00;99.90
10828;DHT22;5467;59.334;13.512;2022-10-28T10:50:56;13.90;99.90
10828;DHT22;5467;59.334;13.512;2022-10-28T10:53:24;14.00;99.90
10828;DHT22;5467;59.334;13.512;2022-10-28T10:55:56;14.00;99.90
10828;DHT22;5467;59.334;13.512;2022-10-28T10:58:29;14.10;99.90
10828;DHT22;5467;59.334;13.512;2022-10-28T11:00:58;14.20;99.90
10828;DHT22;5467;59.334;13.512;2022-10-28T11:03:29;14.20;99.90
10828;DHT22;5467;59.334;13.512;2022-10-28T11:06:02;14.30;99.90
10828;DHT22;5467;59.334;13.512;2022-10-28T11:08:35;14.30;99.90
10828;DHT22;5467;59.334;13.512;2022-10-28T11:11:20;14.30;99.90
10828;DHT22;5467;59.334;13.512;2022-10-28T11:13:48;14.40;99.90
10828;DHT22;5467;59.334;13.512;2022-10-28T11:16:28;14.40;99.90
10828;DHT22;5467;59.334;13.512;2022-10-28T11:18:55;14.30;99.90
10828;DHT22;5467;59.334;13.512;2022-10-28T11:21:45;14.30;99.90
10828;DHT22;5467;59.334;13.512;2022-10-28T11:24:44;14.20;99.90
10828;DHT22;5467;59.334;13.512;2022-10-28T11:27:21;14.20;99.90
10828;DHT22;5467;59.334;13.512;2022-10-28T11:29:51;14.10;99.90
10828;DHT22;5467;59.334;13.512;2022-10-28T11:32:33;14.10;99.90
10828;DHT22;5467;59.334;13.512;2022-10-28T11:35:31;14.20;99.90
10828;DHT22;5467;59.334;13.512;2022-10-28T11:38:15;14.30;99.90
10828;DHT22;5467;59.334;13.512;2022-10-28T11:40:58;14.20;99.90
10828;DHT22;5467;59.334;13.512;2022-10-28T11:43:34;14.10;99.90
10828;DHT22;5467;59.334;13.512;2022-10-28T11:46:08;14.20;99.90
10828;DHT22;5467;59.334;13.512;2022-10-28T11:48:54;14.20;99.90
10828;DHT22;5467;59.334;13.512;2022-10-28T11:51:30;14.20;99.90
10828;DHT22;5467;59.334;13.512;2022-10-28T11:54:19;14.30;99.90
10828;DHT22;5467;59.334;13.512;2022-10-28T11:56:54;14.40;99.90
10828;DHT22;5467;59.334;13.512;2022-10-28T11:59:58;14.30;99.90
10828;DHT22;5467;59.334;13.512;2022-10-28T12:02:52;14.30;99.90
10828;DHT22;5467;59.334;13.512;2022-10-28T12:05:23;14.20;99.90
10828;DHT22;5467;59.334;13.512;2022-10-28T12:08:08;14.20;99.90
10828;DHT22;5467;59.334;13.512;2022-10-28T12:10:59;14.20;99.90
10828;DHT22;5467;59.334;13.512;2022-10-28T12:13:35;14.20;99.90
10828;DHT22;5467;59.334;13.512;2022-10-28T12:16:09;14.30;99.90
10828;DHT22;5467;59.334;13.512;2022-10-28T12:18:46;14.10;99.90
10828;DHT22;5467;59.334;13.512;2022-10-28T12:21:19;14.10;99.90
10828;DHT22;5467;59.334;13.512;2022-10-28T12:23:48;14.20;99.90
10828;DHT22;5467;59.334;13.512;2022-10-28T12:26:18;14.20;99.90
10828;DHT22;5467;59.334;13.512;2022-10-28T12:28:50;14.20;99.90
10828;DHT22;5467;59.334;13.512;2022-10-28T12:31:23;14.10;99.90
10828;DHT22;5467;59.334;13.512;2022-10-28T12:33:53;14.10;99.90
10828;DHT22;5467;59.334;13.512;2022-10-28T12:36:28;14.10;99.90
10828;DHT22;5467;59.334;13.512;2022-10-28T12:39:00;14.10;99.90
10828;DHT22;5467;59.334;13.512;2022-10-28T12:41:43;14.00;99.90
10828;DHT22;5467;59.334;13.512;2022-10-28T12:44:13;14.00;99.90
10828;DHT22;5467;59.334;13.512;2022-10-28T12:46:48;14.00;99.90
10828;DHT22;5467;59.334;13.512;2022-10-28T12:49:20;14.10;99.90
10828;DHT22;5467;59.334;13.512;2022-10-28T12:51:49;14.00;99.90
10828;DHT22;5467;59.334;13.512;2022-10-28T12:54:22;14.10;99.90
10828;DHT22;5467;59.334;13.512;2022-10-28T12:56:58;14.10;99.90
10828;DHT22;5467;59.334;13.512;2022-10-28T12:59:33;14.10;99.90
10828;DHT22;5467;59.334;13.512;2022-10-28T13:02:01;14.00;99.90
10828;DHT22;5467;59.334;13.512;2022-10-28T13:04:30;13.90;99.90
10828;DHT22;5467;59.334;13.512;2022-10-28T13:07:13;13.90;99.90
10828;DHT22;5467;59.334;13.512;2022-10-28T13:09:52;14.00;99.90
10828;DHT22;5467;59.334;13.512;2022-10-28T13:15:51;14.00;99.90
10828;DHT22;5467;59.334;13.512;2022-10-28T13:18:50;13.90;99.90
10828;DHT22;5467;59.334;13.512;2022-10-28T13:21:29;13.90;99.90
10828;DHT22;5467;59.334;13.512;2022-10-28T13:24:02;13.90;99.90
10828;DHT22;5467;59.334;13.512;2022-10-28T13:26:36;13.80;99.90
10828;DHT22;5467;59.334;13.512;2022-10-28T13:29:18;13.80;99.90
10828;DHT22;5467;59.334;13.512;2022-10-28T13:31:47;13.80;99.90
10828;DHT22;5467;59.334;13.512;2022-10-28T13:34:16;13.70;99.90
10828;DHT22;5467;59.334;13.512;2022-10-28T13:36:45;13.70;99.90
10828;DHT22;5467;59.334;13.512;2022-10-28T13:39:23;13.70;99.90
10828;DHT22;5467;59.334;13.512;2022-10-28T13:45:48;13.80;99.90
10828;DHT22;5467;59.334;13.512;2022-10-28T13:48:43;13.70;99.90
10828;DHT22;5467;59.334;13.512;2022-10-28T13:51:33;13.70;99.90
10828;DHT22;5467;59.334;13.512;2022-10-28T13:54:00;13.70;99.90
10828;DHT22;5467;59.334;13.512;2022-10-28T13:56:31;13.70;99.90
10828;DHT22;5467;59.334;13.512;2022-10-28T13:59:02;13.70;99.90
10828;DHT22;5467;59.334;13.512;2022-10-28T14:01:48;13.70;99.90
10828;DHT22;5467;59.334;13.512;2022-10-28T14:04:26;13.70;99.90
10828;DHT22;5467;59.334;13.512;2022-10-28T14:07:17;13.70;99.90
10828;DHT22;5467;59.334;13.512;2022-10-28T14:09:48;13.70;99.90
10828;DHT22;5467;59.334;13.512;2022-10-28T14:12:22;13.70;99.90
10828;DHT22;5467;59.334;13.512;2022-10-28T14:15:02;13.70;99.90
10828;DHT22;5467;59.334;13.512;2022-10-28T14:17:36;13.70;99.90
10828;DHT22;5467;59.334;13.512;2022-10-28T14:20:18;13.70;99.90
10828;DHT22;5467;59.334;13.512;2022-10-28T14:22:47;13.70;99.90
10828;DHT22;5467;59.334;13.512;2022-10-28T14:25:59;13.70;99.90
10828;DHT22;5467;59.334;13.512;2022-10-28T14:28:48;13.60;99.90
10828;DHT22;5467;59.334;13.512;2022-10-28T14:31:42;13.70;99.90
10828;DHT22;5467;59.334;13.512;2022-10-28T14:34:44;13.70;99.90
10828;DHT22;5467;59.334;13.512;2022-10-28T14:37:34;13.60;99.90
10828;DHT22;5467;59.334;13.512;2022-10-28T14:40:30;13.70;99.90
10828;DHT22;5467;59.334;13.512;2022-10-28T14:43:20;13.80;99.90
10828;DHT22;5467;59.334;13.512;2022-10-28T14:46:00;13.70;99.90
10828;DHT22;5467;59.334;13.512;2022-10-28T14:48:45;13.60;99.90
10828;DHT22;5467;59.334;13.512;2022-10-28T14:51:17;13.60;99.90
10828;DHT22;5467;59.334;13.512;2022-10-28T14:53:45;13.60;99.90
10828;DHT22;5467;59.334;13.512;2022-10-28T14:56:19;13.60;99.90
10828;DHT22;5467;59.334;13.512;2022-10-28T14:58:47;13.50;99.90
10828;DHT22;5467;59.334;13.512;2022-10-28T15:01:26;13.60;99.90
10828;DHT22;5467;59.334;13.512;2022-10-28T15:03:57;13.60;99.90
10828;DHT22;5467;59.334;13.512;2022-10-28T15:06:31;13.60;99.90
10828;DHT22;5467;59.334;13.512;2022-10-28T15:09:12;13.60;99.90
10828;DHT22;5467;59.334;13.512;2022-10-28T15:11:42;13.60;99.90
10828;DHT22;5467;59.334;13.512;2022-10-28T15:14:22;13.70;99.90
10828;DHT22;5467;59.334;13.512;2022-10-28T15:16:50;13.70;99.90
10828;DHT22;5467;59.334;13.512;2022-10-28T15:19:19;13.60;99.90
10828;DHT22;5467;59.334;13.512;2022-10-28T15:22:05;13.60;99.90
10828;DHT22;5467;59.334;13.512;2022-10-28T15:24:33;13.60;99.90
10828;DHT22;5467;59.334;13.512;2022-10-28T15:27:00;13.60;99.90
10828;DHT22;5467;59.334;13.512;2022-10-28T15:29:27;13.50;99.90
10828;DHT22;5467;59.334;13.512;2022-10-28T15:32:22;13.50;99.90
10828;DHT22;5467;59.334;13.512;2022-10-28T15:34:50;13.50;99.90
10828;DHT22;5467;59.334;13.512;2022-10-28T15:37:20;13.60;99.90
10828;DHT22;5467;59.334;13.512;2022-10-28T15:39:48;13.50;99.90
10828;DHT22;5467;59.334;13.512;2022-10-28T15:42:35;13.50;99.90
10828;DHT22;5467;59.334;13.512;2022-10-28T15:45:03;13.60;99.90
10828;DHT22;5467;59.334;13.512;2022-10-28T15:47:32;13.60;99.90
10828;DHT22;5467;59.334;13.512;2022-10-28T15:50:03;13.60;99.90
10828;DHT22;5467;59.334;13.512;2022-10-28T15:52:45;13.60;99.90
10828;DHT22;5467;59.334;13.512;2022-10-28T15:55:24;13.50;99.90
10828;DHT22;5467;59.334;13.512;2022-10-28T15:57:53;13.60;99.90
10828;DHT22;5467;59.334;13.512;2022-10-28T16:00:22;13.50;99.90
10828;DHT22;5467;59.334;13.512;2022-10-28T16:02:51;13.60;99.90
10828;DHT22;5467;59.334;13.512;2022-10-28T16:05:49;13.50;99.90
10828;DHT22;5467;59.334;13.512;2022-10-28T16:08:21;13.40;99.90
10828;DHT22;5467;59.334;13.512;2022-10-28T16:10:51;13.40;99.90
10828;DHT22;5467;59.334;13.512;2022-10-28T16:13:28;13.40;99.90